createdAt,value
2022-07-26T00:03:52.443Z,100029.44
2022-07-26T00:08:10.869Z,100022.72
2022-07-26T00:12:13.326Z,100016.88
2022-07-26T00:16:15.774Z,100007.50
2022-07-26T00:20:17.846Z,99998.28
2022-07-26T00:24:20.190Z,99985.81
2022-07-26T00:28:23.254Z,99987.66
2022-07-26T00:32:25.742Z,99980.06
2022-07-26T00:36:29.166Z,99974.22
2022-07-26T00:40:31.819Z,99969.56
2022-07-26T00:44:45.288Z,99967.50
2022-07-26T00:48:47.843Z,99964.00
2022-07-26T00:52:50.887Z,99960.28
2022-07-26T00:56:55.313Z,99956.50
2022-07-26T01:00:57.828Z,99942.34
2022-07-26T01:05:00.482Z,99955.06
2022-07-26T01:09:05.220Z,99947.09
2022-07-26T01:13:07.777Z,99935.63
2022-07-26T01:17:10.473Z,99919.97
2022-07-26T01:21:14.328Z,99914.69
2022-07-26T01:25:16.872Z,99911.06
2022-07-26T01:29:19.093Z,99907.78
2022-07-26T01:33:21.508Z,99900.03
2022-07-26T01:37:23.783Z,99892.94
2022-07-26T01:41:37.257Z,99893.66
2022-07-26T01:45:40.833Z,99899.53
2022-07-26T01:49:44.391Z,99912.78
2022-07-26T01:53:48.186Z,99903.97
2022-07-26T01:57:50.812Z,99908.19
2022-07-26T02:01:53.266Z,99897.72
2022-07-26T02:05:55.404Z,99901.22
2022-07-26T02:09:58.784Z,99921.13
2022-07-26T02:14:04.998Z,99902.47
2022-07-26T02:18:08.258Z,99889.25
2022-07-26T02:22:10.646Z,99895.94
2022-07-26T02:26:13.074Z,99887.56
2022-07-26T02:30:15.573Z,99887.13
2022-07-26T02:34:18.437Z,99892.56
2022-07-26T02:38:20.640Z,99889.22
2022-07-26T02:42:24.587Z,99883.34
2022-07-26T02:46:26.654Z,99879.34
2022-07-26T02:50:29.832Z,99859.53
2022-07-26T02:54:31.826Z,99856.19
2022-07-26T02:58:34.059Z,99855.50
2022-07-26T03:02:36.334Z,99844.91
2022-07-26T03:06:38.742Z,99838.34
2022-07-26T03:10:40.996Z,99833.75
2022-07-26T03:14:43.407Z,99831.78
2022-07-26T03:18:46.150Z,99830.38
2022-07-26T03:22:48.777Z,99842.63
2022-07-26T03:26:51.089Z,99841.28
2022-07-26T03:30:53.628Z,99839.66
2022-07-26T03:34:55.946Z,99828.03
2022-07-26T03:38:58.360Z,99829.50
2022-07-26T03:43:00.686Z,99831.50
2022-07-26T03:47:05.353Z,99839.91
2022-07-26T03:51:07.544Z,99847.50
2022-07-26T03:55:30.191Z,99841.66
2022-07-26T03:59:32.230Z,99844.59
2022-07-26T04:03:34.484Z,99823.84
2022-07-26T04:07:52.419Z,99838.91
2022-07-26T04:11:59.173Z,99856.19
2022-07-26T04:16:01.658Z,99854.72
2022-07-26T04:20:04.345Z,99851.84
2022-07-26T04:24:07.335Z,99851.75
2022-07-26T04:28:11.303Z,99856.53
2022-07-26T04:32:13.326Z,99857.75
2022-07-26T04:36:15.596Z,99872.19
2022-07-26T04:40:21.060Z,99868.56
2022-07-26T04:44:23.929Z,99873.09
2022-07-26T04:48:26.218Z,99876.94
2022-07-26T04:52:28.757Z,99874.75
2022-07-26T04:56:31.079Z,99887.44
2022-07-26T05:00:35.043Z,99871.66
2022-07-26T05:04:48.941Z,99868.81
2022-07-26T05:08:51.270Z,99880.31
2022-07-26T05:12:53.296Z,99889.88
2022-07-26T05:16:55.703Z,99895.00
2022-07-26T05:20:58.993Z,99893.34
2022-07-26T05:25:01.384Z,99902.53
2022-07-26T05:29:03.633Z,99895.16
2022-07-26T05:33:05.922Z,99896.63
2022-07-26T05:37:08.140Z,99888.44
2022-07-26T05:41:10.346Z,99886.72
2022-07-26T05:45:12.667Z,99881.28
2022-07-26T05:49:15.097Z,99874.25
2022-07-26T05:53:17.229Z,99883.34
2022-07-26T05:57:19.543Z,99883.94
2022-07-26T06:01:21.481Z,99889.53
2022-07-26T06:05:25.404Z,99883.47
2022-07-26T06:09:27.459Z,99884.38
2022-07-26T06:13:29.839Z,99883.06
2022-07-26T06:17:32.077Z,99888.72
2022-07-26T06:21:34.792Z,99885.25
2022-07-26T06:25:37.288Z,99886.19
2022-07-26T06:29:40.520Z,99874.44
2022-07-26T06:33:42.463Z,99872.66
2022-07-26T06:37:44.757Z,99870.56
2022-07-26T06:41:46.818Z,99869.38
2022-07-26T06:45:49.568Z,99867.00
2022-07-26T06:49:51.982Z,99861.81
2022-07-26T06:53:54.383Z,99859.91
2022-07-26T06:57:56.418Z,99856.13
2022-07-26T07:02:00.504Z,99850.66
2022-07-26T07:06:02.907Z,99840.84
2022-07-26T07:10:06.300Z,99833.25
2022-07-26T07:14:08.629Z,99830.78
2022-07-26T07:18:12.075Z,99842.38
2022-07-26T07:22:14.392Z,99854.59
2022-07-26T07:26:16.646Z,99862.44
2022-07-26T07:30:18.785Z,99872.19
2022-07-26T07:34:24.064Z,99855.81
2022-07-26T07:38:26.167Z,99859.94
2022-07-26T07:42:28.633Z,99889.34
2022-07-26T07:46:30.759Z,99885.22
2022-07-26T07:50:33.565Z,99880.25
2022-07-26T07:54:36.231Z,99850.03
2022-07-26T07:58:38.629Z,99861.66
2022-07-26T08:02:40.596Z,99851.69
2022-07-26T08:06:42.950Z,99864.75
2022-07-26T08:10:53.419Z,99861.00
2022-07-26T08:14:55.819Z,99860.38
2022-07-26T08:19:08.665Z,99860.78
2022-07-26T08:23:11.307Z,99859.34
2022-07-26T08:27:14.188Z,99863.47
2022-07-26T08:31:17.038Z,99857.66
2022-07-26T08:35:19.764Z,99858.66
2022-07-26T08:39:22.614Z,99851.53
2022-07-26T08:43:25.247Z,99848.19
2022-07-26T08:47:39.938Z,99849.44
2022-07-26T08:51:45.286Z,99836.50
2022-07-26T09:00:15.645Z,99847.88
2022-07-26T09:04:38.803Z,99838.22
2022-07-26T09:08:42.831Z,99843.88
2022-07-26T09:12:45.576Z,99847.94
2022-07-26T09:16:59.318Z,99848.72
2022-07-26T09:21:02.563Z,99860.34
2022-07-26T09:25:20.338Z,99865.19
2022-07-26T09:29:22.773Z,99869.78
2022-07-26T09:33:26.655Z,99877.84
2022-07-26T09:37:35.991Z,99884.72
2022-07-26T09:41:38.134Z,99889.25
2022-07-26T09:45:40.503Z,99893.81
2022-07-26T09:49:43.166Z,99891.38
2022-07-26T09:53:46.867Z,99887.44
2022-07-26T09:57:51.163Z,99883.53
2022-07-26T10:01:55.131Z,99892.75
2022-07-26T10:05:58.625Z,99885.56
2022-07-26T10:10:11.831Z,99881.63
2022-07-26T10:14:38.633Z,99886.06
2022-07-26T10:18:40.839Z,99891.22
2022-07-26T10:22:47.571Z,99892.53
2022-07-26T10:26:49.795Z,99907.59
2022-07-26T10:30:51.910Z,99900.13
2022-07-26T10:34:54.267Z,99903.78
2022-07-26T10:39:02.190Z,99907.38
2022-07-26T10:47:36.091Z,99909.69
2022-07-26T10:51:40.656Z,99900.84
2022-07-26T10:55:51.833Z,99901.09
2022-07-26T10:59:57.726Z,99909.13
2022-07-26T11:03:59.926Z,99906.88
2022-07-26T11:08:10.647Z,99918.81
2022-07-26T11:12:20.292Z,99918.75
2022-07-26T11:16:23.461Z,99931.31
2022-07-26T11:20:29.851Z,99935.84
2022-07-26T11:24:32.376Z,99942.13
2022-07-26T11:29:01.358Z,99953.88
2022-07-26T11:33:08.758Z,99952.25
2022-07-26T11:37:11.031Z,99965.69
2022-07-26T11:41:15.360Z,99968.75
2022-07-26T11:45:17.567Z,99977.22
2022-07-26T11:53:59.857Z,100003.06
2022-07-26T11:58:06.448Z,100002.66
2022-07-26T12:02:09.600Z,100007.56
2022-07-26T12:06:15.321Z,100005.88
2022-07-26T12:10:17.302Z,100012.56
2022-07-26T12:14:39.778Z,100017.56
2022-07-26T12:18:51.566Z,100006.91
2022-07-26T12:23:05.103Z,100021.28
2022-07-26T12:27:11.619Z,100019.84
2022-07-26T12:31:31.613Z,100025.81
2022-07-26T12:35:35.700Z,100017.16
2022-07-26T12:39:39.146Z,100017.84
2022-07-26T12:43:41.476Z,100027.81
2022-07-26T12:47:45.489Z,100038.69
2022-07-26T12:51:47.653Z,100036.47
2022-07-26T12:55:49.992Z,100044.81
2022-07-26T12:59:52.095Z,100032.91
2022-07-26T13:03:55.802Z,100019.41
2022-07-26T13:07:58.117Z,100004.50
2022-07-26T13:12:05.548Z,100003.47
2022-07-26T13:16:11.859Z,99996.59
2022-07-26T13:20:14.832Z,99926.97
2022-07-26T13:24:19.395Z,99962.63
2022-07-26T13:28:22.340Z,99985.34
2022-07-26T13:32:24.495Z,100001.66
2022-07-26T13:36:27.084Z,100011.03
2022-07-26T13:40:31.518Z,100035.88
2022-07-26T13:44:34.399Z,100039.56
2022-07-26T13:48:36.513Z,100056.72
2022-07-26T13:52:40.040Z,100045.22
2022-07-26T13:56:42.514Z,100035.53
2022-07-26T14:00:44.791Z,100027.19
2022-07-26T14:04:46.925Z,100030.69
2022-07-26T14:08:49.197Z,100032.22
2022-07-26T14:12:51.658Z,100036.03
2022-07-26T14:16:54.026Z,100034.19
2022-07-26T14:20:56.172Z,100039.56
2022-07-26T14:24:58.560Z,100050.72
2022-07-26T14:29:00.606Z,100066.22
2022-07-26T14:33:03.092Z,100060.56
2022-07-26T14:37:08.405Z,100040.03
2022-07-26T14:41:27.398Z,100022.53
2022-07-26T14:45:30.261Z,100020.22
2022-07-26T14:49:32.818Z,100019.72
2022-07-26T14:53:35.062Z,100023.00
2022-07-26T14:57:39.404Z,100018.88
2022-07-26T15:01:43.342Z,100028.34
2022-07-26T15:05:45.806Z,100016.50
2022-07-26T15:09:47.932Z,100026.03
2022-07-26T15:13:50.238Z,100051.22
2022-07-26T15:17:52.667Z,100054.59
2022-07-26T15:21:55.787Z,100033.00
2022-07-26T15:25:58.482Z,100007.53
2022-07-26T15:30:05.109Z,100012.22
2022-07-26T15:34:11.522Z,100018.84
2022-07-26T15:38:14.308Z,100008.69
2022-07-26T15:42:16.447Z,100018.53
2022-07-26T15:46:20.150Z,100028.38
2022-07-26T15:50:25.084Z,100028.00
2022-07-26T15:54:27.372Z,100042.53
2022-07-26T15:58:30.101Z,100029.00
2022-07-26T16:02:36.488Z,100037.19
2022-07-26T16:06:38.848Z,100037.19
2022-07-26T16:10:41.961Z,100054.53
2022-07-26T16:14:46.832Z,100050.78
2022-07-26T16:18:49.138Z,100065.97
2022-07-26T16:22:51.220Z,100067.03
2022-07-26T16:26:53.569Z,100089.97
2022-07-26T16:30:55.580Z,100103.97
2022-07-26T16:34:57.932Z,100094.50
2022-07-26T16:39:00.019Z,100103.28
2022-07-26T16:43:02.403Z,100109.25
2022-07-26T16:47:11.820Z,100109.38
2022-07-26T16:51:14.622Z,100108.28
2022-07-26T16:55:16.617Z,100125.41
2022-07-26T16:59:18.973Z,100134.28
2022-07-26T17:03:21.044Z,100141.53
2022-07-26T17:07:25.555Z,100160.59
2022-07-26T17:11:28.132Z,100157.22
2022-07-26T17:15:30.647Z,100156.47
2022-07-26T17:19:32.726Z,100158.59
2022-07-26T17:23:36.565Z,100151.09
2022-07-26T17:27:38.737Z,100151.34
2022-07-26T17:31:41.097Z,100158.31
2022-07-26T17:35:43.879Z,100158.22
2022-07-26T17:39:53.157Z,100162.72
2022-07-26T17:43:56.328Z,100158.91
2022-07-26T17:48:01.836Z,100168.28
2022-07-26T17:52:09.006Z,100173.25
2022-07-26T17:56:11.411Z,100192.50
2022-07-26T18:00:14.285Z,100188.75
2022-07-26T18:04:18.583Z,100185.34
2022-07-26T18:08:22.063Z,100176.63
2022-07-26T18:12:24.286Z,100176.72
2022-07-26T18:16:27.516Z,100156.78
2022-07-26T18:20:29.893Z,100153.13
2022-07-26T18:24:32.058Z,100161.28
2022-07-26T18:28:34.371Z,100183.31
2022-07-26T18:32:36.506Z,100170.31
2022-07-26T18:36:39.199Z,100175.50
2022-07-26T18:40:41.249Z,100187.25
2022-07-26T18:44:44.183Z,100192.13
2022-07-26T18:48:46.231Z,100193.94
2022-07-26T18:52:49.055Z,100183.44
2022-07-26T18:56:51.186Z,100191.88
2022-07-26T19:00:53.391Z,100198.81
2022-07-26T19:04:55.378Z,100199.25
2022-07-26T19:08:57.910Z,100194.78
2022-07-26T19:12:59.947Z,100194.94
2022-07-26T19:17:02.243Z,100194.03
2022-07-26T19:21:04.391Z,100180.44
2022-07-26T19:25:09.352Z,100185.97
2022-07-26T19:29:11.643Z,100184.53
2022-07-26T19:33:14.436Z,100183.59
2022-07-26T19:37:21.524Z,100177.03
2022-07-26T19:41:25.850Z,100165.69
2022-07-26T19:45:27.923Z,100181.38
2022-07-26T19:49:30.222Z,100176.22
2022-07-26T19:53:32.330Z,100165.88
2022-07-26T19:57:34.811Z,100163.06
2022-07-26T20:01:36.894Z,100151.38
2022-07-26T20:05:39.222Z,100149.16
2022-07-26T20:09:41.271Z,100173.91
2022-07-26T20:13:44.517Z,100166.69
2022-07-26T20:17:46.848Z,100169.19
2022-07-26T20:21:49.969Z,100188.38
2022-07-26T20:25:52.491Z,100178.31
2022-07-26T20:30:00.438Z,100171.34
2022-07-26T20:34:03.283Z,100167.59
2022-07-26T20:38:05.612Z,100185.22
2022-07-26T20:42:09.365Z,100168.44
2022-07-26T20:46:19.769Z,100177.84
2022-07-26T20:50:23.400Z,100180.53
2022-07-26T20:54:26.700Z,100191.19
2022-07-26T20:58:28.898Z,100194.28
2022-07-26T21:02:31.311Z,100193.44
2022-07-26T21:06:34.013Z,100194.25
2022-07-26T21:10:36.767Z,100199.03
2022-07-26T21:14:39.488Z,100202.94
2022-07-26T21:18:41.810Z,100194.97
2022-07-26T21:22:43.902Z,100191.63
2022-07-26T21:26:46.295Z,100198.31
2022-07-26T21:30:48.687Z,100203.34
2022-07-26T21:34:51.106Z,100205.31
2022-07-26T21:38:53.247Z,100200.16
2022-07-26T21:42:55.655Z,100211.03
2022-07-26T21:46:57.749Z,100216.88
2022-07-26T21:51:00.136Z,100208.94
2022-07-26T21:55:02.398Z,100207.69
2022-07-26T21:59:04.627Z,100206.00
2022-07-26T22:03:07.107Z,100197.91
2022-07-26T22:07:09.401Z,100191.75
2022-07-26T22:11:11.529Z,100188.94
2022-07-26T22:15:13.944Z,100198.47
2022-07-26T22:19:16.087Z,100204.34
2022-07-26T22:23:19.218Z,100189.13
2022-07-26T22:27:21.281Z,100201.41
2022-07-26T22:31:23.697Z,100212.25
2022-07-26T22:35:32.363Z,100202.63
2022-07-26T22:39:38.752Z,100206.13
2022-07-26T22:43:40.922Z,100208.88
2022-07-26T22:47:55.578Z,100210.72
2022-07-26T22:51:58.639Z,100216.28
2022-07-26T22:56:00.883Z,100208.31
2022-07-26T23:00:03.124Z,100208.59
2022-07-26T23:04:05.587Z,100219.19
2022-07-26T23:08:29.450Z,100208.19
2022-07-26T23:12:31.153Z,100212.88
2022-07-26T23:16:33.687Z,100218.31
2022-07-26T23:20:36.522Z,100225.72
2022-07-26T23:24:38.913Z,100223.75
2022-07-26T23:28:45.826Z,100239.66
2022-07-26T23:32:47.876Z,100238.72
2022-07-26T23:36:50.337Z,100238.69
2022-07-26T23:40:52.386Z,100230.59
2022-07-26T23:44:54.673Z,100249.22
2022-07-26T23:48:58.892Z,100230.78
2022-07-26T23:53:01.320Z,100220.88
2022-07-26T23:57:03.677Z,100218.69
